| time (UTC) | temp C | wind direction | speed KPH | gust KPH | rain 1hr cm | rain 24hr cm | rain mn cm | humidity % | barometer mb |
| 20260906215041 | 20 | 13 | 8.0 | 12.9 | 0.00 | 0.00 | 0.00 | 74 | 1018.0 |
| 20260906214558 | 20 | 28 | 4.8 | 12.9 | 0.00 | 0.00 | 0.00 | 73 | 1017.9 |
| 20260906214041 | 20 | 5 | 4.8 | 12.9 | 0.00 | 0.00 | 0.00 | 73 | 1017.9 |
| 20260906213541 | 20 | 11 | 9.7 | 12.9 | 0.00 | 0.00 | 0.00 | 74 | 1018.0 |
| 20260906213041 | 20 | 34 | 6.4 | 12.9 | 0.00 | 0.00 | 0.00 | 74 | 1018.1 |
| 20260906212540 | 20 | 22 | 3.2 | 12.9 | 0.00 | 0.00 | 0.00 | 74 | 1018.0 |
| 20260906212041 | 20 | 40 | 6.4 | 14.5 | 0.00 | 0.00 | 0.00 | 74 | 1018.0 |
| 20260906211545 | 20 | 19 | 6.4 | 12.9 | 0.00 | 0.00 | 0.00 | 75 | 1018.0 |
| 20260906211040 | 20 | 17 | 6.4 | 14.5 | 0.00 | 0.00 | 0.00 | 75 | 1018.0 |
| 20260906210540 | 20 | 29 | 11.3 | 14.5 | 0.00 | 0.00 | 0.00 | 75 | 1018.1 |
| 20260906210107 | 20 | 28 | 9.7 | 16.1 | 0.00 | 0.00 | 0.00 | 75 | 1018.1 |
| 20260906205540 | 20 | 28 | 9.7 | 16.1 | 0.00 | 0.00 | 0.00 | 76 | 1018.1 |
| 20260906205039 | 20 | 50 | 8.0 | 16.1 | 0.00 | 0.00 | 0.00 | 77 | 1018.2 |
| 20260906204551 | 20 | 24 | 11.3 | 16.1 | 0.00 | 0.00 | 0.00 | 73 | 1018.1 |
| 20260906204039 | 20 | 63 | 6.4 | 16.1 | 0.00 | 0.00 | 0.00 | 76 | 1018.0 |
| 20260906203539 | 20 | 48 | 9.7 | 16.1 | 0.00 | 0.00 | 0.00 | 76 | 1018.0 |
| 20260906203044 | 20 | 44 | 11.3 | 20.9 | 0.00 | 0.00 | 0.00 | 74 | 1017.9 |
| 20260906202538 | 20 | 38 | 12.9 | 20.9 | 0.00 | 0.00 | 0.00 | 76 | 1018.0 |
| 20260906202041 | 20 | 55 | 11.3 | 19.3 | 0.00 | 0.00 | 0.00 | 75 | 1018.0 |
| 20260906201547 | 20 | 38 | 8.0 | 19.3 | 0.00 | 0.00 | 0.00 | 77 | 1018.0 |
| 20260906201038 | 20 | 46 | 9.7 | 19.3 | 0.00 | 0.00 | 0.00 | 77 | 1018.2 |
| 20260906200539 | 19 | 44 | 11.3 | 22.5 | 0.00 | 0.00 | 0.00 | 78 | 1018.0 |
| 20260906200040 | 19 | 22 | 16.1 | 22.5 | 0.00 | 0.00 | 0.00 | 76 | 1018.1 |
| 20260906195536 | 19 | 49 | 11.3 | 20.9 | 0.00 | 0.00 | 0.00 | 78 | 1018.2 |
| 20260906195037 | 19 | 31 | 12.9 | 20.9 | 0.00 | 0.00 | 0.00 | 76 | 1018.1 |
| 20260906194536 | 19 | 40 | 11.3 | 20.9 | 0.00 | 0.00 | 0.00 | 78 | 1018.1 |
| 20260906194036 | 19 | 27 | 14.5 | 22.5 | 0.00 | 0.00 | 0.00 | 76 | 1018.1 |
| 20260906193538 | 19 | 38 | 16.1 | 22.5 | 0.00 | 0.00 | 0.00 | 78 | 1018.1 |
| 20260906193036 | 19 | 37 | 17.7 | 22.5 | 0.00 | 0.00 | 0.00 | 78 | 1018.0 |
| 20260906192536 | 19 | 39 | 12.9 | 22.5 | 0.00 | 0.00 | 0.00 | 79 | 1018.1 |
| 20260906192036 | 19 | 44 | 14.5 | 25.7 | 0.00 | 0.00 | 0.00 | 80 | 1018.1 |
| 20260906191543 | 19 | 44 | 14.5 | 25.7 | 0.00 | 0.00 | 0.00 | 78 | 1018.1 |
| 20260906191035 | 19 | 49 | 14.5 | 22.5 | 0.00 | 0.00 | 0.00 | 78 | 1018.1 |
| 20260906190535 | 19 | 45 | 14.5 | 24.1 | 0.00 | 0.00 | 0.00 | 76 | 1018.1 |
| 20260906190035 | 19 | 51 | 14.5 | 24.1 | 0.00 | 0.00 | 0.00 | 78 | 1018.1 |
| 20260906185534 | 19 | 41 | 12.9 | 20.9 | 0.00 | 0.00 | 0.00 | 79 | 1018.1 |
| 20260906185034 | 19 | 69 | 11.3 | 25.7 | 0.00 | 0.00 | 0.00 | 78 | 1018.1 |
| 20260906184535 | 19 | 42 | 16.1 | 25.7 | 0.00 | 0.00 | 0.00 | 79 | 1018.1 |
| 20260906184038 | 19 | 42 | 16.1 | 22.5 | 0.00 | 0.00 | 0.00 | 79 | 1018.1 |
| 20260906183533 | 19 | 53 | 11.3 | 22.5 | 0.00 | 0.00 | 0.00 | 80 | 1018.1 |
| 20260906183035 | 19 | 55 | 12.9 | 20.9 | 0.00 | 0.00 | 0.00 | 80 | 1018.1 |
| 20260906182533 | 18 | 52 | 12.9 | 24.1 | 0.00 | 0.00 | 0.00 | 81 | 1018.2 |
| 20260906182033 | 19 | 38 | 17.7 | 24.1 | 0.00 | 0.00 | 0.00 | 80 | 1018.1 |
| 20260906181537 | 19 | 44 | 12.9 | 24.1 | 0.00 | 0.00 | 0.00 | 81 | 1018.1 |
| 20260906181033 | 19 | 49 | 14.5 | 25.7 | 0.00 | 0.00 | 0.00 | 80 | 1018.2 |
| 20260906180533 | 18 | 55 | 16.1 | 25.7 | 0.00 | 0.00 | 0.00 | 80 | 1018.2 |
| 20260906180052 | 18 | 65 | 12.9 | 24.1 | 0.00 | 0.00 | 0.00 | 81 | 1018.3 |
| 20260906175533 | 18 | 42 | 17.7 | 24.1 | 0.00 | 0.00 | 0.00 | 81 | 1018.2 |
| 20260906175032 | 18 | 31 | 14.5 | 20.9 | 0.00 | 0.00 | 0.00 | 82 | 1018.2 |
| 20260906174548 | 18 | 66 | 14.5 | 20.9 | 0.00 | 0.00 | 0.00 | 84 | 1018.3 |
| 20260906174032 | 18 | 54 | 8.0 | 20.9 | 0.00 | 0.00 | 0.00 | 82 | 1018.4 |
| 20260906173534 | 18 | 41 | 11.3 | 24.1 | 0.00 | 0.00 | 0.00 | 81 | 1018.4 |
| 20260906173034 | 18 | 51 | 17.7 | 24.1 | 0.00 | 0.00 | 0.00 | 82 | 1018.3 |
| 20260906172531 | 18 | 26 | 14.5 | 24.1 | 0.00 | 0.00 | 0.00 | 82 | 1018.5 |
| 20260906172031 | 18 | 77 | 8.0 | 19.3 | 0.00 | 0.00 | 0.00 | 82 | 1018.6 |
| 20260906171531 | 18 | 83 | 6.4 | 16.1 | 0.00 | 0.00 | 0.00 | 82 | 1018.5 |
| 20260906171031 | 18 | 74 | 3.2 | 20.9 | 0.00 | 0.00 | 0.00 | 82 | 1018.5 |
| 20260906170529 | 18 | 40 | 16.1 | 25.7 | 0.00 | 0.00 | 0.00 | 82 | 1018.3 |
| 20260906170030 | 18 | 50 | 12.9 | 25.7 | 0.00 | 0.00 | 0.00 | 82 | 1018.3 |
| 20260906165529 | 18 | 66 | 14.5 | 25.7 | 0.00 | 0.00 | 0.00 | 82 | 1018.3 |
| 20260906165029 | 18 | 37 | 17.7 | 24.1 | 0.00 | 0.00 | 0.00 | 83 | 1018.2 |
| 20260906164528 | 18 | 47 | 9.7 | 20.9 | 0.00 | 0.00 | 0.00 | 84 | 1018.2 |
| 20260906164027 | 18 | 27 | 14.5 | 20.9 | 0.00 | 0.00 | 0.00 | 83 | 1018.1 |
| 20260906163527 | 18 | 78 | 4.8 | 19.3 | 0.00 | 0.00 | 0.00 | 83 | 1018.2 |
| 20260906163028 | 18 | 61 | 4.8 | 16.1 | 0.00 | 0.00 | 0.00 | 82 | 1018.2 |
| 20260906162528 | 18 | 69 | 8.0 | 17.7 | 0.00 | 0.00 | 0.00 | 82 | 1018.3 |
| 20260906162028 | 18 | 45 | 8.0 | 17.7 | 0.00 | 0.00 | 0.00 | 83 | 1018.4 |
| 20260906161528 | 18 | 48 | 8.0 | 22.5 | 0.00 | 0.00 | 0.00 | 83 | 1018.4 |
| 20260906161032 | 18 | 61 | 6.4 | 22.5 | 0.00 | 0.00 | 0.00 | 82 | 1018.4 |
| 20260906160526 | 18 | 94 | 8.0 | 17.7 | 0.00 | 0.00 | 0.00 | 83 | 1018.3 |
| 20260906160028 | 18 | 51 | 6.4 | 17.7 | 0.00 | 0.00 | 0.00 | 82 | 1018.3 |
| 20260906155524 | 18 | 79 | 4.8 | 22.5 | 0.00 | 0.00 | 0.00 | 84 | 1018.2 |
| 20260906155023 | 18 | 34 | 11.3 | 22.5 | 0.00 | 0.00 | 0.00 | 84 | 1018.2 |
| 20260906154530 | 18 | 76 | 8.0 | 24.1 | 0.00 | 0.00 | 0.00 | 84 | 1018.2 |
| 20260906154021 | 18 | 53 | 17.7 | 24.1 | 0.00 | 0.00 | 0.00 | 85 | 1018.2 |
| 20260906153520 | 18 | 55 | 12.9 | 22.5 | 0.00 | 0.00 | 0.00 | 84 | 1018.1 |
| 20260906153032 | 18 | 63 | 9.7 | 24.1 | 0.00 | 0.00 | 0.00 | 83 | 1018.1 |
| 20260906152520 | 18 | 60 | 14.5 | 24.1 | 0.00 | 0.00 | 0.00 | 85 | 1018.2 |
| 20260906152020 | 18 | 76 | 11.3 | 22.5 | 0.00 | 0.00 | 0.00 | 85 | 1018.2 |
| 20260906151520 | 18 | 67 | 12.9 | 22.5 | 0.00 | 0.00 | 0.00 | 85 | 1018.2 |
| 20260906151019 | 18 | 51 | 14.5 | 20.9 | 0.00 | 0.00 | 0.00 | 84 | 1018.3 |
| 20260906150520 | 18 | 85 | 4.8 | 25.7 | 0.00 | 0.00 | 0.00 | 84 | 1018.2 |
| 20260906150024 | 18 | 67 | 12.9 | 25.7 | 0.00 | 0.00 | 0.00 | 84 | 1018.3 |
| 20260906145519 | 18 | 92 | 6.4 | 20.9 | 0.00 | 0.00 | 0.00 | 84 | 1018.2 |
| 20260906145017 | 18 | 96 | 8.0 | 20.9 | 0.00 | 0.00 | 0.00 | 85 | 1018.2 |
| 20260906144520 | 18 | 53 | 4.8 | 19.3 | 0.00 | 0.00 | 0.00 | 84 | 1018.2 |
| 20260906144017 | 18 | 63 | 3.2 | 20.9 | 0.00 | 0.00 | 0.00 | 84 | 1018.2 |
| 20260906143517 | 18 | 90 | 4.8 | 25.7 | 0.00 | 0.00 | 0.00 | 85 | 1018.2 |
| 20260906143021 | 18 | 93 | 16.1 | 25.7 | 0.00 | 0.00 | 0.00 | 87 | 1018.1 |
| 20260906142515 | 18 | 55 | 9.7 | 24.1 | 0.00 | 0.00 | 0.00 | 84 | 1018.0 |
| 20260906142017 | 18 | 49 | 14.5 | 24.1 | 0.00 | 0.00 | 0.00 | 86 | 1017.9 |
| 20260906141513 | 18 | 49 | 16.1 | 25.7 | 0.00 | 0.00 | 0.00 | 85 | 1017.8 |
| 20260906141015 | 18 | 86 | 4.8 | 24.1 | 0.00 | 0.00 | 0.00 | 87 | 1017.7 |
| 20260906140512 | 18 | 65 | 12.9 | 24.1 | 0.00 | 0.00 | 0.00 | 87 | 1017.7 |
| 20260906140017 | 18 | 75 | 17.7 | 22.5 | 0.00 | 0.00 | 0.00 | 88 | 1017.6 |
| 20260906135511 | 18 | 71 | 12.9 | 25.7 | 0.00 | 0.00 | 0.00 | 87 | 1017.6 |
| 20260906135008 | 18 | 68 | 14.5 | 24.1 | 0.00 | 0.00 | 0.00 | 87 | 1017.5 |
| 20260906134511 | 18 | 72 | 9.7 | 25.7 | 0.00 | 0.00 | 0.00 | 86 | 1017.5 |
| 20260906134007 | 18 | 25 | 17.7 | 25.7 | 0.00 | 0.00 | 0.00 | 88 | 1017.4 |
| 20260906133505 | 18 | 45 | 12.9 | 24.1 | 0.00 | 0.00 | 0.00 | 87 | 1017.4 |
| 20260906133018 | 18 | 59 | 14.5 | 25.7 | 0.00 | 0.00 | 0.00 | 87 | 1017.4 |
| 20260906132505 | 18 | 59 | 16.1 | 25.7 | 0.00 | 0.00 | 0.00 | 87 | 1017.3 |
| 20260906132004 | 18 | 42 | 14.5 | 25.7 | 0.00 | 0.00 | 0.00 | 87 | 1017.3 |
| 20260906131504 | 18 | 51 | 19.3 | 25.7 | 0.00 | 0.00 | 0.00 | 85 | 1017.3 |
| 20260906131004 | 18 | 65 | 16.1 | 24.1 | 0.00 | 0.00 | 0.00 | 86 | 1017.3 |
| 20260906130504 | 18 | 54 | 16.1 | 25.7 | 0.00 | 0.00 | 0.00 | 85 | 1017.3 |
| 20260906130006 | 18 | 45 | 17.7 | 25.7 | 0.00 | 0.00 | 0.00 | 87 | 1017.4 |
| 20260906125503 | 18 | 51 | 17.7 | 25.7 | 0.00 | 0.00 | 0.00 | 84 | 1017.3 |
| 20260906125003 | 18 | 77 | 19.3 | 27.4 | 0.00 | 0.00 | 0.00 | 86 | 1017.1 |
| 20260906124504 | 18 | 57 | 19.3 | 27.4 | 0.00 | 0.00 | 0.00 | 87 | 1017.1 |
| 20260906124002 | 18 | 63 | 17.7 | 27.4 | 0.00 | 0.00 | 0.00 | 87 | 1017.1 |
| 20260906123501 | 18 | 42 | 16.1 | 27.4 | 0.00 | 0.00 | 0.00 | 88 | 1017.1 |
| 20260906123102 | 18 | 67 | 19.3 | 27.4 | 0.00 | 0.00 | 0.00 | 88 | 1017.1 |
| 20260906123004 | 18 | 50 | 19.3 | 27.4 | 0.00 | 0.00 | 0.00 | 89 | 1017.0 |
| 20260906122600 | 18 | 78 | 19.3 | 27.4 | 0.00 | 0.00 | 0.00 | 88 | 1017.0 |
| 20260906122059 | 19 | 60 | 17.7 | 27.4 | 0.00 | 0.00 | 0.00 | 88 | 1016.9 |
| 20260906121558 | 18 | 55 | 14.5 | 25.7 | 0.00 | 0.00 | 0.00 | 88 | 1016.8 |
| 20260906121057 | 18 | 63 | 14.5 | 25.7 | 0.00 | 0.00 | 0.00 | 88 | 1016.8 |
| 20260906120556 | 19 | 59 | 16.1 | 29.0 | 0.00 | 0.00 | 0.00 | 89 | 1016.7 |
| 20260906120058 | 19 | 61 | 16.1 | 29.0 | 0.00 | 0.00 | 0.00 | 89 | 1016.7 |
| 20260906115554 | 19 | 55 | 17.7 | 30.6 | 0.00 | 0.00 | 0.00 | 88 | 1016.6 |
| 20260906115052 | 19 | 69 | 20.9 | 30.6 | 0.00 | 0.00 | 0.00 | 88 | 1016.4 |
| 20260906114552 | 19 | 58 | 20.9 | 29.0 | 0.00 | 0.00 | 0.00 | 89 | 1016.3 |
| 20260906114050 | 19 | 37 | 12.9 | 25.7 | 0.00 | 0.00 | 0.00 | 89 | 1016.3 |
| 20260906113550 | 19 | 91 | 9.7 | 29.0 | 0.00 | 0.00 | 0.00 | 90 | 1016.2 |
| 20260906113050 | 19 | 50 | 20.9 | 32.2 | 0.00 | 0.00 | 0.00 | 88 | 1016.1 |
| 20260906112549 | 19 | 65 | 19.3 | 32.2 | 0.00 | 0.00 | 0.00 | 89 | 1016.0 |
| 20260906112048 | 19 | 53 | 19.3 | 30.6 | 0.00 | 0.00 | 0.00 | 90 | 1015.9 |
| 20260906111550 | 19 | 50 | 17.7 | 29.0 | 0.00 | 0.00 | 0.00 | 91 | 1015.8 |
| 20260906111045 | 19 | 73 | 4.8 | 24.1 | 0.00 | 0.00 | 0.00 | 89 | 1015.9 |
| 20260906110544 | 19 | 79 | 8.0 | 24.1 | 0.00 | 0.00 | 0.00 | 89 | 1015.8 |
| 20260906110051 | 19 | 76 | 11.3 | 22.5 | 0.00 | 0.00 | 0.00 | 89 | 1015.8 |
| 20260906105541 | 19 | 76 | 4.8 | 12.9 | 0.00 | 0.00 | 0.00 | 88 | 1015.6 |
| 20260906105043 | 19 | 86 | 3.2 | 19.3 | 0.00 | 0.00 | 0.00 | 88 | 1015.6 |
| 20260906104538 | 20 | 85 | 3.2 | 27.4 | 0.00 | 0.00 | 0.00 | 88 | 1015.6 |
| 20260906104040 | 20 | 61 | 16.1 | 27.4 | 0.00 | 0.00 | 0.00 | 87 | 1015.5 |
| 20260906103538 | 20 | 39 | 11.3 | 22.5 | 0.00 | 0.00 | 0.00 | 86 | 1015.5 |
| 20260906103045 | 20 | 61 | 16.1 | 20.9 | 0.00 | 0.00 | 0.00 | 87 | 1015.5 |
| 20260906102539 | 20 | 63 | 11.3 | 20.9 | 0.00 | 0.00 | 0.00 | 85 | 1015.4 |
| 20260906102035 | 20 | 49 | 12.9 | 22.5 | 0.00 | 0.00 | 0.00 | 87 | 1015.4 |
| 20260906101535 | 20 | 46 | 11.3 | 19.3 | 0.00 | 0.00 | 0.00 | 86 | 1015.3 |
| 20260906101034 | 20 | 65 | 12.9 | 22.5 | 0.00 | 0.00 | 0.00 | 86 | 1015.3 |
| 20260906100535 | 20 | 55 | 12.9 | 22.5 | 0.00 | 0.00 | 0.00 | 87 | 1015.2 |
| 20260906100033 | 20 | 51 | 14.5 | 22.5 | 0.00 | 0.00 | 0.00 | 88 | 1015.1 |
| 20260906095533 | 20 | 47 | 16.1 | 22.5 | 0.00 | 0.00 | 0.00 | 86 | 1015.1 |
| 20260906095030 | 20 | 38 | 16.1 | 22.5 | 0.00 | 0.00 | 0.00 | 86 | 1015.0 |
| 20260906094529 | 20 | 46 | 16.1 | 22.5 | 0.00 | 0.00 | 0.00 | 87 | 1015.0 |
| 20260906094028 | 20 | 65 | 12.9 | 19.3 | 0.00 | 0.00 | 0.00 | 86 | 1015.0 |
| 20260906093531 | 20 | 60 | 11.3 | 20.9 | 0.00 | 0.00 | 0.00 | 85 | 1014.9 |
| 20260906093036 | 20 | 57 | 14.5 | 20.9 | 0.00 | 0.00 | 0.00 | 86 | 1014.9 |
| 20260906092526 | 20 | 36 | 12.9 | 19.3 | 0.00 | 0.00 | 0.00 | 86 | 1014.7 |
| 20260906092033 | 20 | 36 | 12.9 | 19.3 | 0.00 | 0.00 | 0.00 | 87 | 1014.7 |
| 20260906091525 | 20 | 32 | 12.9 | 20.9 | 0.00 | 0.00 | 0.00 | 85 | 1014.5 |
| 20260906091024 | 20 | 40 | 16.1 | 22.5 | 0.00 | 0.00 | 0.00 | 86 | 1014.4 |
| 20260906090523 | 20 | 40 | 16.1 | 22.5 | 0.00 | 0.00 | 0.00 | 86 | 1014.2 |
| 20260906090037 | 20 | 40 | 16.1 | 22.5 | 0.00 | 0.00 | 0.00 | 86 | 1014.3 |
| 20260906085523 | 20 | 59 | 12.9 | 24.1 | 0.00 | 0.00 | 0.00 | 86 | 1014.2 |
| 20260906085021 | 20 | 50 | 16.1 | 25.7 | 0.00 | 0.00 | 0.00 | 86 | 1014.2 |
| 20260906084521 | 20 | 44 | 19.3 | 24.1 | 0.00 | 0.00 | 0.00 | 86 | 1014.2 |
| 20260906084022 | 20 | 55 | 17.7 | 22.5 | 0.00 | 0.00 | 0.00 | 87 | 1014.2 |
| 20260906083520 | 20 | 42 | 14.5 | 22.5 | 0.00 | 0.00 | 0.00 | 87 | 1014.1 |
| 20260906083023 | 20 | 32 | 16.1 | 22.5 | 0.00 | 0.00 | 0.00 | 88 | 1014.1 |
| 20260906082520 | 20 | 21 | 17.7 | 24.1 | 0.00 | 0.00 | 0.00 | 88 | 1014.0 |
| 20260906082023 | 20 | 27 | 17.7 | 24.1 | 0.00 | 0.00 | 0.00 | 88 | 1014.1 |
| 20260906081519 | 20 | 25 | 16.1 | 19.3 | 0.00 | 0.00 | 0.00 | 88 | 1014.1 |
| 20260906081019 | 20 | 44 | 16.1 | 19.3 | 0.00 | 0.00 | 0.00 | 87 | 1014.1 |
| 20260906080519 | 20 | 21 | 16.1 | 19.3 | 0.00 | 0.00 | 0.00 | 87 | 1014.1 |
| 20260906080019 | 20 | 9 | 16.1 | 20.9 | 0.00 | 0.00 | 0.00 | 87 | 1014.1 |
| 20260906075517 | 20 | 11 | 14.5 | 20.9 | 0.00 | 0.00 | 0.00 | 87 | 1014.1 |
| 20260906075018 | 20 | 5 | 16.1 | 19.3 | 0.00 | 0.00 | 0.00 | 87 | 1014.1 |
| 20260906074516 | 20 | 25 | 16.1 | 20.9 | 0.00 | 0.00 | 0.00 | 87 | 1014.1 |
| 20260906074016 | 20 | 27 | 16.1 | 20.9 | 0.00 | 0.00 | 0.00 | 87 | 1014.0 |
| 20260906073514 | 20 | 28 | 14.5 | 19.3 | 0.00 | 0.00 | 0.00 | 85 | 1014.0 |
| 20260906073014 | 20 | 28 | 14.5 | 19.3 | 0.00 | 0.00 | 0.00 | 84 | 1014.0 |
| 20260906072514 | 20 | 19 | 14.5 | 20.9 | 0.00 | 0.00 | 0.00 | 85 | 1014.0 |
| 20260906072017 | 20 | 41 | 14.5 | 20.9 | 0.00 | 0.00 | 0.00 | 84 | 1014.0 |
| 20260906071514 | 20 | 46 | 12.9 | 20.9 | 0.00 | 0.00 | 0.00 | 84 | 1014.0 |
| 20260906071013 | 20 | 37 | 14.5 | 20.9 | 0.00 | 0.00 | 0.00 | 85 | 1014.0 |
| 20260906070515 | 20 | 23 | 14.5 | 20.9 | 0.00 | 0.00 | 0.00 | 85 | 1014.0 |
| 20260906070012 | 20 | 37 | 14.5 | 19.3 | 0.00 | 0.00 | 0.00 | 84 | 1014.0 |
| 20260906065512 | 20 | 34 | 14.5 | 19.3 | 0.00 | 0.00 | 0.00 | 84 | 1014.0 |
| 20260906065010 | 21 | 40 | 14.5 | 19.3 | 0.00 | 0.00 | 0.00 | 85 | 1014.1 |
| 20260906064511 | 20 | 27 | 12.9 | 17.7 | 0.00 | 0.00 | 0.00 | 84 | 1014.1 |
| 20260906064011 | 21 | 24 | 14.5 | 17.7 | 0.00 | 0.00 | 0.00 | 84 | 1014.1 |
| 20260906063510 | 21 | 12 | 14.5 | 17.7 | 0.00 | 0.00 | 0.00 | 83 | 1014.1 |
| 20260906063011 | 20 | 26 | 12.9 | 17.7 | 0.00 | 0.00 | 0.00 | 83 | 1014.1 |
| 20260906062512 | 20 | 40 | 9.7 | 16.1 | 0.00 | 0.00 | 0.00 | 83 | 1014.0 |
| 20260906062010 | 21 | 40 | 9.7 | 16.1 | 0.00 | 0.00 | 0.00 | 83 | 1014.1 |
| 20260906061510 | 21 | 13 | 8.0 | 17.7 | 0.00 | 0.00 | 0.00 | 83 | 1014.0 |
| 20260906061010 | 21 | 26 | 9.7 | 17.7 | 0.00 | 0.00 | 0.00 | 83 | 1014.1 |
| 20260906060509 | 21 | 40 | 12.9 | 19.3 | 0.00 | 0.00 | 0.00 | 82 | 1014.1 |
| 20260906060009 | 21 | 30 | 12.9 | 19.3 | 0.00 | 0.00 | 0.00 | 84 | 1014.1 |
| 20260906055512 | 21 | 40 | 9.7 | 16.1 | 0.00 | 0.00 | 0.00 | 84 | 1014.0 |
| 20260906055008 | 21 | 33 | 11.3 | 16.1 | 0.00 | 0.00 | 0.00 | 83 | 1014.1 |
| 20260906054508 | 21 | 34 | 9.7 | 17.7 | 0.00 | 0.00 | 0.00 | 83 | 1014.0 |
| 20260906054008 | 21 | 71 | 8.0 | 16.1 | 0.00 | 0.00 | 0.00 | 82 | 1014.0 |
| 20260906053507 | 21 | 61 | 8.0 | 17.7 | 0.00 | 0.00 | 0.00 | 81 | 1014.1 |
| 20260906053008 | 21 | 54 | 11.3 | 20.9 | 0.00 | 0.00 | 0.00 | 82 | 1014.0 |
| 20260906052507 | 21 | 55 | 8.0 | 20.9 | 0.00 | 0.00 | 0.00 | 81 | 1014.1 |
| 20260906052011 | 21 | 51 | 12.9 | 20.9 | 0.00 | 0.00 | 0.00 | 83 | 1014.2 |
| 20260906051507 | 21 | 53 | 14.5 | 20.9 | 0.00 | 0.00 | 0.00 | 82 | 1014.2 |
| 20260906051006 | 21 | 55 | 12.9 | 20.9 | 0.00 | 0.00 | 0.00 | 81 | 1014.1 |
| 20260906050506 | 21 | 42 | 12.9 | 20.9 | 0.00 | 0.00 | 0.00 | 82 | 1014.1 |
| 20260906050005 | 21 | 39 | 16.1 | 24.1 | 0.00 | 0.00 | 0.00 | 81 | 1014.1 |
| 20260906045505 | 21 | 62 | 17.7 | 25.7 | 0.00 | 0.00 | 0.00 | 80 | 1014.0 |
| 20260906045005 | 21 | 33 | 17.7 | 25.7 | 0.00 | 0.00 | 0.00 | 81 | 1014.0 |
| 20260906044502 | 21 | 32 | 17.7 | 25.7 | 0.00 | 0.00 | 0.00 | 82 | 1014.0 |
| 20260906044004 | 21 | 30 | 19.3 | 25.7 | 0.00 | 0.00 | 0.00 | 83 | 1013.9 |
| 20260906043501 | 21 | 39 | 17.7 | 25.7 | 0.00 | 0.00 | 0.00 | 82 | 1013.9 |
| 20260906043002 | 21 | 44 | 19.3 | 25.7 | 0.00 | 0.00 | 0.00 | 80 | 1013.9 |
| 20260906042501 | 21 | 40 | 17.7 | 25.7 | 0.00 | 0.00 | 0.00 | 80 | 1013.9 |
| 20260906042001 | 21 | 44 | 17.7 | 25.7 | 0.00 | 0.00 | 0.00 | 79 | 1013.9 |
| 20260906041605 | 21 | 56 | 19.3 | 24.1 | 0.00 | 0.00 | 0.00 | 79 | 1013.9 |
| 20260906041100 | 21 | 28 | 19.3 | 24.1 | 0.00 | 0.00 | 0.00 | 78 | 1013.9 |
| 20260906040601 | 21 | 43 | 17.7 | 25.7 | 0.00 | 0.00 | 0.00 | 79 | 1013.8 |
| 20260906040058 | 21 | 48 | 17.7 | 29.0 | 0.00 | 0.00 | 0.00 | 82 | 1013.9 |
| 20260906035557 | 21 | 43 | 20.9 | 29.0 | 0.00 | 0.00 | 0.00 | 81 | 1013.8 |
| 20260906035057 | 21 | 22 | 19.3 | 22.5 | 0.00 | 0.00 | 0.00 | 84 | 1013.8 |
| 20260906034620 | 21 | 22 | 17.7 | 24.1 | 0.00 | 0.00 | 0.00 | 84 | 1013.7 |
| 20260906034056 | 21 | 44 | 16.1 | 24.1 | 0.00 | 0.00 | 0.00 | 82 | 1013.8 |
| 20260906033557 | 21 | 36 | 19.3 | 24.1 | 0.00 | 0.00 | 0.00 | 82 | 1013.9 |
| 20260906033056 | 21 | 18 | 17.7 | 22.5 | 0.00 | 0.00 | 0.00 | 83 | 1013.8 |
| 20260906032555 | 21 | 19 | 17.7 | 22.5 | 0.00 | 0.00 | 0.00 | 84 | 1013.7 |
| 20260906032056 | 21 | 17 | 17.7 | 22.5 | 0.00 | 0.00 | 0.00 | 83 | 1013.8 |
| 20260906031554 | 21 | 20 | 17.7 | 22.5 | 0.00 | 0.00 | 0.00 | 84 | 1013.7 |
| 20260906031055 | 21 | 24 | 17.7 | 22.5 | 0.00 | 0.00 | 0.00 | 85 | 1013.7 |
| 20260906030555 | 21 | 14 | 16.1 | 20.9 | 0.00 | 0.00 | 0.00 | 84 | 1013.6 |
| 20260906030055 | 21 | 17 | 17.7 | 20.9 | 0.00 | 0.00 | 0.00 | 84 | 1013.6 |
| 20260906025554 | 21 | 351 | 14.5 | 20.9 | 0.00 | 0.00 | 0.00 | 84 | 1013.6 |
| 20260906025057 | 21 | 5 | 16.1 | 19.3 | 0.00 | 0.00 | 0.00 | 84 | 1013.6 |
| 20260906024553 | 21 | 355 | 16.1 | 19.3 | 0.00 | 0.00 | 0.00 | 84 | 1013.5 |
| 20260906024053 | 21 | 5 | 14.5 | 17.7 | 0.00 | 0.00 | 0.00 | 83 | 1013.5 |
| 20260906023553 | 21 | 355 | 14.5 | 17.7 | 0.00 | 0.00 | 0.00 | 84 | 1013.5 |
| 20260906023053 | 21 | 355 | 14.5 | 17.7 | 0.00 | 0.00 | 0.00 | 84 | 1013.4 |
| 20260906022552 | 21 | 355 | 12.9 | 17.7 | 0.00 | 0.00 | 0.00 | 84 | 1013.4 |
| 20260906022052 | 21 | 344 | 11.3 | 16.1 | 0.00 | 0.00 | 0.00 | 85 | 1013.4 |
| 20260906021553 | 21 | 346 | 11.3 | 16.1 | 0.00 | 0.00 | 0.00 | 86 | 1013.5 |
| 20260906021056 | 21 | 340 | 8.0 | 14.5 | 0.00 | 0.00 | 0.00 | 85 | 1013.4 |
| 20260906020552 | 21 | 337 | 9.7 | 16.1 | 0.00 | 0.00 | 0.00 | 84 | 1013.5 |
| 20260906020059 | 21 | 321 | 9.7 | 16.1 | 0.00 | 0.00 | 0.00 | 83 | 1013.5 |
| 20260906015551 | 21 | 331 | 8.0 | 16.1 | 0.00 | 0.00 | 0.00 | 84 | 1013.5 |
| 20260906015051 | 21 | 355 | 12.9 | 16.1 | 0.00 | 0.00 | 0.00 | 83 | 1013.4 |
| 20260906014551 | 21 | 317 | 11.3 | 16.1 | 0.00 | 0.00 | 0.00 | 81 | 1013.5 |
| 20260906014050 | 21 | 325 | 12.9 | 16.1 | 0.00 | 0.00 | 0.00 | 83 | 1013.4 |
| 20260906013552 | 21 | 355 | 11.3 | 16.1 | 0.00 | 0.00 | 0.00 | 83 | 1013.4 |
| 20260906013102 | 21 | 338 | 12.9 | 16.1 | 0.00 | 0.00 | 0.00 | 82 | 1013.3 |
| 20260906012549 | 21 | 340 | 12.9 | 16.1 | 0.00 | 0.00 | 0.00 | 83 | 1013.3 |
| 20260906012052 | 21 | 315 | 11.3 | 16.1 | 0.00 | 0.00 | 0.00 | 84 | 1013.3 |
| 20260906011550 | 21 | 344 | 8.0 | 14.5 | 0.00 | 0.00 | 0.00 | 84 | 1013.4 |
| 20260906011049 | 21 | 317 | 8.0 | 14.5 | 0.00 | 0.00 | 0.00 | 83 | 1013.4 |
| 20260906010550 | 21 | 327 | 8.0 | 16.1 | 0.00 | 0.00 | 0.00 | 84 | 1013.4 |
| 20260906010052 | 21 | 312 | 9.7 | 16.1 | 0.00 | 0.00 | 0.00 | 83 | 1013.4 |
| 20260906005549 | 21 | 311 | 9.7 | 14.5 | 0.00 | 0.00 | 0.00 | 82 | 1013.4 |
| 20260906005049 | 21 | 336 | 11.3 | 19.3 | 0.00 | 0.00 | 0.00 | 82 | 1013.3 |
| 20260906004549 | 21 | 327 | 8.0 | 19.3 | 0.00 | 0.00 | 0.00 | 82 | 1013.2 |
| 20260906004048 | 21 | 322 | 9.7 | 14.5 | 0.00 | 0.00 | 0.00 | 83 | 1013.1 |
| 20260906003549 | 21 | 318 | 8.0 | 12.9 | 0.00 | 0.00 | 0.00 | 82 | 1013.1 |
| 20260906003049 | 21 | 328 | 8.0 | 14.5 | 0.00 | 0.00 | 0.00 | 82 | 1013.2 |
| 20260906002548 | 21 | 333 | 6.4 | 14.5 | 0.00 | 0.00 | 0.00 | 83 | 1013.3 |
| 20260906002050 | 21 | 319 | 8.0 | 14.5 | 0.00 | 0.00 | 0.00 | 82 | 1013.3 |
| 20260906001548 | 21 | 322 | 8.0 | 14.5 | 0.00 | 0.00 | 0.00 | 84 | 1013.4 |
| 20260906001051 | 21 | 306 | 8.0 | 12.9 | 0.00 | 0.00 | 0.00 | 83 | 1013.4 |
| 20260906000548 | 21 | 312 | 8.0 | 14.5 | 0.00 | 0.00 | 0.00 | 83 | 1013.3 |
| 20260906000057 | 21 | 306 | 9.7 | 14.5 | 0.00 | 0.00 | 0.00 | 83 | 1013.3 |
| 20260905235548 | 21 | 312 | 8.0 | 12.9 | 0.00 | 0.00 | 0.00 | 83 | 1013.4 |
| 20260905235048 | 21 | 320 | 8.0 | 12.9 | 0.00 | 0.00 | 0.00 | 83 | 1013.4 |
| 20260905234556 | 21 | 298 | 9.7 | 14.5 | 0.00 | 0.00 | 0.00 | 83 | 1013.4 |
| 20260905234047 | 20 | 302 | 9.7 | 14.5 | 0.00 | 0.00 | 0.00 | 83 | 1013.3 |
| 20260905233547 | 20 | 316 | 6.4 | 14.5 | 0.00 | 0.00 | 0.00 | 83 | 1013.2 |
| 20260905233048 | 20 | 321 | 8.0 | 12.9 | 0.00 | 0.00 | 0.00 | 83 | 1013.3 |
| 20260905232547 | 20 | 326 | 6.4 | 9.7 | 0.00 | 0.00 | 0.00 | 83 | 1013.3 |
| 20260905232047 | 20 | 313 | 6.4 | 9.7 | 0.00 | 0.00 | 0.00 | 83 | 1013.1 |
| 20260905231547 | 20 | 306 | 6.4 | 12.9 | 0.00 | 0.00 | 0.00 | 84 | 1013.1 |
| 20260905231046 | 21 | 281 | 6.4 | 9.7 | 0.00 | 0.00 | 0.00 | 84 | 1013.2 |
| 20260905230546 | 21 | 319 | 6.4 | 9.7 | 0.00 | 0.00 | 0.00 | 84 | 1013.2 |
| 20260905230047 | 21 | 311 | 6.4 | 9.7 | 0.00 | 0.00 | 0.00 | 83 | 1013.3 |
| 20260905225547 | 20 | 309 | 4.8 | 11.3 | 0.00 | 0.00 | 0.00 | 83 | 1013.1 |
| 20260905225045 | 20 | 298 | 4.8 | 11.3 | 0.00 | 0.00 | 0.00 | 83 | 1013.3 |
| 20260905224547 | 20 | 317 | 6.4 | 9.7 | 0.00 | 0.00 | 0.00 | 83 | 1013.3 |
| 20260905224046 | 20 | 329 | 6.4 | 9.7 | 0.00 | 0.00 | 0.00 | 83 | 1013.4 |
| 20260905223544 | 20 | 315 | 6.4 | 9.7 | 0.00 | 0.00 | 0.00 | 82 | 1013.3 |
| 20260905223049 | 21 | 314 | 4.8 | 9.7 | 0.00 | 0.00 | 0.00 | 82 | 1013.3 |
| 20260905222545 | 21 | 318 | 6.4 | 9.7 | 0.00 | 0.00 | 0.00 | 81 | 1013.4 |
| 20260905222044 | 21 | 328 | 6.4 | 9.7 | 0.00 | 0.00 | 0.00 | 81 | 1013.3 |
| 20260905221543 | 21 | 327 | 4.8 | 9.7 | 0.00 | 0.00 | 0.00 | 81 | 1013.2 |
| 20260905221046 | 21 | 347 | 6.4 | 9.7 | 0.00 | 0.00 | 0.00 | 82 | 1013.3 |
| 20260905220544 | 21 | 331 | 6.4 | 9.7 | 0.00 | 0.00 | 0.00 | 83 | 1013.2 |
| 20260905220043 | 21 | 308 | 4.8 | 9.7 | 0.00 | 0.00 | 0.00 | 82 | 1013.1 |
| 20260905215543 | 21 | 340 | 4.8 | 8.0 | 0.00 | 0.00 | 0.00 | 81 | 1013.2 |